Time;durP1;ratioP1;P1;durP2;ratioP2;P2;SDS_P1;SDS_P2;PMS_P1;PMS_P2;Temp;Humidity;BMP_temperature;BMP_pressure;BME280_temperature;BME280_humidity;BME280_pressure;Samples;Min_cycle;Max_cycle;Signal;HPM_P1;HPM_P2
2022/02/10 00:16:10;;;;;;;42.67;25.77;;;8.30;99.90;;;;;;5051394;28;20053;-53
2022/02/10 00:21:10;;;;;;;42.58;27.38;;;7.90;99.90;;;;;;5073811;28;20509;-54
2022/02/10 00:34:24;;;;;;;35.15;24.42;;;7.50;99.90;;;;;;5073669;28;20523;-53
2022/02/10 00:37:09;;;;;;;40.63;24.13;;;7.30;99.90;;;;;;5072591;28;20028;-53
2022/02/10 00:40:02;;;;;;;46.72;24.58;;;7.00;99.90;;;;;;5072317;28;20374;-54
2022/02/10 00:42:23;;;;;;;41.97;25.48;;;6.90;99.90;;;;;;5074316;28;20549;-53
2022/02/10 00:44:48;;;;;;;46.92;28.00;;;6.70;99.90;;;;;;5074251;28;20252;-53
2022/02/10 00:47:14;;;;;;;51.85;29.10;;;6.60;99.90;;;;;;5074252;28;20024;-53
2022/02/10 00:49:41;;;;;;;55.83;28.98;;;6.60;99.90;;;;;;5073816;28;20466;-53
2022/02/10 00:52:07;;;;;;;52.95;30.38;;;6.60;99.90;;;;;;5073794;28;20025;-53
2022/02/10 00:54:37;;;;;;;57.03;32.75;;;6.60;99.90;;;;;;5074479;28;20040;-52
2022/02/10 00:57:06;;;;;;;51.10;31.02;;;6.70;99.90;;;;;;5074541;28;20028;-52
2022/02/10 01:00:07;;;;;;;53.00;31.52;;;6.60;99.90;;;;;;5073736;28;20044;-52
2022/02/10 01:13:02;;;;;;;51.03;29.13;;;6.20;99.90;;;;;;5073456;28;20056;-53
2022/02/10 01:31:52;;;;;;;67.28;36.70;;;6.50;99.90;;;;;;5072690;28;20023;-53
2022/02/10 01:34:17;;;;;;;62.90;37.38;;;6.60;99.90;;;;;;5073251;28;20028;-53
2022/02/10 01:36:43;;;;;;;61.58;35.33;;;6.70;99.90;;;;;;5072467;28;20020;-53
2022/02/10 01:39:09;;;;;;;58.22;35.08;;;6.70;99.90;;;;;;5072807;28;20488;-53
2022/02/10 02:03:45;;;;;;;67.78;39.05;;;6.70;99.90;;;;;;5072909;28;20539;-53
2022/02/10 02:06:28;;;;;;;67.18;39.55;;;6.60;99.90;;;;;;5072509;28;20029;-53
2022/02/10 02:08:54;;;;;;;64.32;39.47;;;6.60;99.90;;;;;;5072621;28;20421;-53
2022/02/10 02:11:27;;;;;;;67.88;40.88;;;6.50;99.90;;;;;;5072569;28;20067;-53
2022/02/10 02:13:52;;;;;;;71.95;40.88;;;6.50;99.90;;;;;;5072553;28;20025;-53
2022/02/10 02:16:18;;;;;;;64.40;38.50;;;6.40;99.90;;;;;;5071308;28;20081;-53
2022/02/10 02:18:44;;;;;;;69.80;39.30;;;6.30;99.90;;;;;;5072631;28;20424;-53
2022/02/10 02:21:10;;;;;;;77.15;42.55;;;6.30;99.90;;;;;;5071711;28;20025;-53
2022/02/10 02:23:35;;;;;;;87.57;43.97;;;6.20;99.90;;;;;;5072420;28;20067;-54
2022/02/10 02:26:10;;;;;;;92.00;45.83;;;6.20;99.90;;;;;;5072264;28;20055;-53
2022/02/10 02:28:44;;;;;;;82.70;46.63;;;6.20;99.90;;;;;;5071597;28;20107;-53
2022/02/10 02:31:15;;;;;;;87.47;46.83;;;6.30;99.90;;;;;;5070533;28;20031;-53
2022/02/10 03:06:15;;;;;;;76.18;45.35;;;6.80;99.90;;;;;;5071028;28;20063;-54
2022/02/10 03:08:46;;;;;;;74.00;43.08;;;6.80;99.90;;;;;;5071005;28;20031;-54
2022/02/10 03:11:14;;;;;;;74.93;44.42;;;6.80;99.90;;;;;;5070249;28;20124;-54
2022/02/10 03:13:49;;;;;;;75.32;45.13;;;6.80;99.90;;;;;;5071994;28;20066;-53
2022/02/10 03:16:42;;;;;;;78.75;46.95;;;6.80;99.90;;;;;;5070967;28;20024;-53
2022/02/10 03:19:19;;;;;;;86.72;48.08;;;6.80;99.90;;;;;;5070060;28;20029;-53
2022/02/10 03:22:20;;;;;;;85.47;49.97;;;6.90;99.90;;;;;;5071789;28;20397;-53
2022/02/10 04:11:00;;;;;;;71.70;42.75;;;6.90;99.90;;;;;;5070589;28;20028;-53
2022/02/10 04:16:12;;;;;;;64.63;40.65;;;6.90;99.90;;;;;;5070567;28;20381;-54
2022/02/10 04:21:37;;;;;;;65.35;39.95;;;6.90;99.90;;;;;;5070901;28;20047;-54
2022/02/10 04:26:51;;;;;;;65.93;40.10;;;7.00;99.90;;;;;;5071302;28;20081;-54
2022/02/10 04:43:20;;;;;;;58.00;37.03;;;7.10;99.90;;;;;;5070426;28;20085;-54
2022/02/10 04:56:38;;;;;;;53.85;34.35;;;7.10;99.90;;;;;;5074521;28;20021;-54
2022/02/10 04:59:29;;;;;;;54.67;34.72;;;7.00;99.90;;;;;;5074054;28;20477;-54
2022/02/10 05:07:50;;;;;;;52.30;32.70;;;7.00;99.90;;;;;;5073802;28;20021;-54
2022/02/10 05:34:00;;;;;;;55.72;34.88;;;7.00;99.90;;;;;;5074097;28;20020;-54
2022/02/10 05:36:32;;;;;;;58.72;35.60;;;7.00;99.90;;;;;;5073984;28;20100;-54
2022/02/10 05:54:38;;;;;;;58.55;34.95;;;6.90;99.90;;;;;;5073257;28;20089;-53
2022/02/10 06:02:53;;;;;;;59.70;35.40;;;6.90;99.90;;;;;;5073304;28;20113;-53
2022/02/10 06:51:52;;;;;;;57.25;31.25;;;7.20;99.90;;;;;;5050017;28;20029;-53
2022/02/10 07:13:04;;;;;;;63.15;32.20;;;7.30;99.90;;;;;;5045753;28;20083;-53
2022/02/10 07:59:01;;;;;;;71.45;38.28;;;7.20;99.90;;;;;;5041461;28;20104;-53
2022/02/10 08:26:38;;;;;;;75.93;39.63;;;7.50;99.90;;;;;;5046560;28;20070;-53
2022/02/10 09:14:31;;;;;;;49.22;28.13;;;8.10;99.90;;;;;;5039519;28;20031;-54
2022/02/10 10:03:23;;;;;;;17.90;11.70;;;9.00;99.90;;;;;;5028086;28;20535;-54
2022/02/10 10:05:43;;;;;;;16.55;12.10;;;9.30;99.90;;;;;;5044671;28;20037;-54
2022/02/10 10:08:21;;;;;;;16.60;11.30;;;9.50;99.90;;;;;;5043746;28;20021;-53
2022/02/10 10:53:08;;;;;;;7.57;5.68;;;10.00;99.90;;;;;;5045515;28;20039;-55
2022/02/10 10:57:39;;;;;;;8.55;5.95;;;10.00;99.90;;;;;;5043427;28;20013;-54
2022/02/10 11:42:07;;;;;;;20.85;15.00;;;10.00;99.90;;;;;;5045541;28;20029;-55
2022/02/10 12:00:16;;;;;;;20.35;16.02;;;9.70;99.90;;;;;;5042028;28;20068;-54
2022/02/10 13:23:36;;;;;;;13.57;10.13;;;10.60;99.90;;;;;;5044781;28;20044;-55
2022/02/10 13:32:43;;;;;;;16.92;13.70;;;10.60;99.90;;;;;;5050609;28;20106;-54
2022/02/10 14:18:50;;;;;;;18.38;12.85;;;10.20;99.90;;;;;;5043934;28;20036;-57
2022/02/10 14:25:40;;;;;;;19.08;13.73;;;10.00;99.90;;;;;;5048298;28;20028;-57
2022/02/10 14:26:22;;;;;;;15.98;11.40;;;9.90;99.90;;;;;;5044825;28;20064;-58
2022/02/10 14:28:48;;;;;;;14.13;9.32;;;9.70;99.90;;;;;;5039745;28;20120;-56
2022/02/10 14:31:15;;;;;;;11.65;8.35;;;9.40;99.90;;;;;;5041570;28;20124;-56
2022/02/10 14:33:42;;;;;;;12.50;8.10;;;9.30;99.90;;;;;;5039230;28;20563;-56
2022/02/10 14:36:24;;;;;;;10.80;6.45;;;9.20;99.90;;;;;;5046235;28;20714;-57
2022/02/10 14:38:59;;;;;;;10.73;7.03;;;9.20;99.90;;;;;;5048103;28;20025;-56
2022/02/10 16:18:10;;;;;;;13.57;5.05;;;8.10;99.90;;;;;;5051569;28;20027;-57
2022/02/10 16:20:36;;;;;;;11.30;4.47;;;8.00;99.90;;;;;;5051677;28;20028;-56
2022/02/10 16:23:05;;;;;;;12.07;3.92;;;7.90;99.90;;;;;;5050441;28;20108;-56
2022/02/10 16:25:36;;;;;;;12.18;3.47;;;7.90;99.90;;;;;;5047181;28;20024;-56
2022/02/10 16:28:24;;;;;;;11.50;3.20;;;7.80;99.90;;;;;;5049392;28;20033;-56
2022/02/10 16:30:51;;;;;;;8.63;2.72;;;7.70;99.90;;;;;;5051141;28;20040;-56
2022/02/10 16:33:16;;;;;;;7.22;3.30;;;7.70;99.90;;;;;;5051168;28;20025;-56
2022/02/10 16:35:42;;;;;;;11.25;3.30;;;7.70;99.90;;;;;;5050767;28;20032;-56
2022/02/10 16:38:09;;;;;;;9.45;3.05;;;7.70;99.90;;;;;;5050780;28;20063;-57
2022/02/10 16:40:35;;;;;;;10.38;3.28;;;7.60;99.90;;;;;;5049685;28;20078;-56
2022/02/10 16:43:01;;;;;;;12.60;3.60;;;7.60;99.90;;;;;;5048477;28;20087;-56
2022/02/10 16:45:27;;;;;;;7.30;2.80;;;7.50;99.90;;;;;;5051031;28;20478;-56
2022/02/10 16:47:53;;;;;;;7.80;2.17;;;7.50;99.90;;;;;;5049392;28;20029;-56
2022/02/10 16:50:22;;;;;;;9.48;2.58;;;7.40;99.90;;;;;;5051960;28;20035;-56
2022/02/10 16:52:55;;;;;;;9.73;2.40;;;7.40;99.90;;;;;;5053342;28;20108;-56
2022/02/10 17:03:36;;;;;;;9.50;2.60;;;7.30;99.90;;;;;;5054042;28;20086;-56
2022/02/10 17:17:23;;;;;;;12.27;4.57;;;7.20;99.90;;;;;;5052690;28;20043;-56
2022/02/10 17:27:32;;;;;;;6.43;2.60;;;7.30;99.90;;;;;;5054207;28;20024;-56
2022/02/10 17:30:34;;;;;;;6.60;1.38;;;7.00;99.90;;;;;;5053812;28;20044;-56
2022/02/10 17:35:46;;;;;;;6.68;1.83;;;6.90;99.90;;;;;;5054438;28;20029;-56
2022/02/10 17:44:31;;;;;;;2.85;0.95;;;6.70;99.90;;;;;;5051083;28;20033;-56
2022/02/10 17:52:22;;;;;;;3.05;0.93;;;6.50;99.90;;;;;;5053184;28;20031;-55
2022/02/10 17:54:49;;;;;;;4.30;0.90;;;6.40;99.90;;;;;;5053636;28;20073;-56
2022/02/10 17:57:16;;;;;;;1.50;0.70;;;6.30;99.90;;;;;;5053238;28;20029;-56
2022/02/10 17:59:42;;;;;;;5.60;1.10;;;6.40;99.90;;;;;;5053020;28;20040;-56
2022/02/10 18:02:08;;;;;;;4.07;0.77;;;6.40;99.90;;;;;;5052834;28;20052;-56
2022/02/10 18:04:34;;;;;;;3.78;0.88;;;6.30;99.90;;;;;;5053094;28;20532;-56
2022/02/10 18:07:00;;;;;;;5.45;0.98;;;6.30;99.90;;;;;;5052992;28;20028;-55
2022/02/10 18:15:11;;;;;;;2.72;1.50;;;6.40;99.90;;;;;;5052487;28;20116;-56
2022/02/10 18:17:42;;;;;;;4.80;2.22;;;6.40;99.90;;;;;;5053078;28;20025;-56
2022/02/10 18:20:23;;;;;;;2.05;0.90;;;6.30;99.90;;;;;;5052544;28;20025;-56
2022/02/10 18:26:07;;;;;;;3.72;0.80;;;6.20;99.90;;;;;;5050116;28;20029;-56
2022/02/10 18:28:53;;;;;;;7.88;1.33;;;6.10;99.90;;;;;;5049973;28;20119;-56
2022/02/10 19:09:00;;;;;;;4.75;1.85;;;5.70;99.90;;;;;;5053262;28;20029;-56
2022/02/10 19:11:14;;;;;;;5.07;1.88;;;5.80;99.90;;;;;;5051559;28;20091;-56
2022/02/10 19:13:40;;;;;;;2.97;2.00;;;5.70;99.90;;;;;;5051485;28;20078;-55
2022/02/10 19:16:06;;;;;;;2.05;1.48;;;5.60;99.90;;;;;;5052376;28;20562;-55
2022/02/10 19:18:31;;;;;;;2.70;1.88;;;5.60;99.90;;;;;;5052066;28;20478;-56
2022/02/10 19:20:57;;;;;;;2.22;1.73;;;5.50;99.90;;;;;;5052090;28;20453;-56
2022/02/10 19:23:25;;;;;;;6.07;2.05;;;5.50;99.90;;;;;;5051403;28;20398;-56
2022/02/10 19:25:51;;;;;;;5.70;2.30;;;5.50;99.90;;;;;;5051685;28;20032;-56
2022/02/10 19:28:17;;;;;;;3.47;2.00;;;5.50;99.90;;;;;;5051237;28;20029;-56
2022/02/10 19:30:44;;;;;;;4.60;2.28;;;5.60;99.90;;;;;;5051730;28;20394;-56
2022/02/10 19:33:15;;;;;;;5.30;2.53;;;5.50;99.90;;;;;;5051529;28;20098;-56
2022/02/10 19:35:45;;;;;;;3.60;2.25;;;5.50;99.90;;;;;;5050646;28;20017;-56
2022/02/10 19:38:15;;;;;;;6.13;2.40;;;5.50;99.90;;;;;;5050510;28;20029;-56
2022/02/10 19:40:43;;;;;;;4.18;2.40;;;5.40;99.90;;;;;;5051758;28;20108;-55
2022/02/10 19:43:10;;;;;;;5.22;2.75;;;5.40;99.90;;;;;;5051777;28;20572;-55
2022/02/10 19:45:36;;;;;;;5.50;3.10;;;5.40;99.90;;;;;;5051750;28;20108;-55
2022/02/10 19:48:02;;;;;;;8.95;3.53;;;5.40;99.90;;;;;;5051655;28;20704;-55
2022/02/10 19:50:30;;;;;;;4.78;2.92;;;5.40;99.90;;;;;;5040966;28;20080;-55
2022/02/10 19:53:00;;;;;;;5.63;2.83;;;5.40;99.90;;;;;;5032001;28;20419;-55
2022/02/10 19:55:26;;;;;;;5.78;2.90;;;5.40;99.90;;;;;;5032729;28;20474;-55
2022/02/10 19:57:57;;;;;;;5.05;2.65;;;5.40;99.90;;;;;;5030369;28;20052;-56
2022/02/10 20:00:31;;;;;;;6.90;3.30;;;5.40;99.90;;;;;;5032056;28;20029;-56
2022/02/10 20:02:56;;;;;;;5.82;4.00;;;5.40;99.90;;;;;;5031607;28;20034;-56
2022/02/10 20:05:25;;;;;;;4.32;3.83;;;5.50;99.90;;;;;;5031397;28;20368;-56
2022/02/10 20:07:52;;;;;;;5.90;3.28;;;5.50;99.90;;;;;;5030099;28;20111;-56
2022/02/10 20:10:18;;;;;;;6.10;2.63;;;5.50;99.90;;;;;;5031593;28;20401;-55
2022/02/10 20:12:44;;;;;;;5.25;2.97;;;5.50;99.90;;;;;;5031206;28;20122;-55
2022/02/10 20:15:12;;;;;;;5.25;2.90;;;5.50;99.90;;;;;;5030526;28;20081;-55
2022/02/10 20:17:38;;;;;;;4.78;2.50;;;5.50;99.90;;;;;;5031107;28;20463;-55
2022/02/10 20:20:04;;;;;;;4.43;2.90;;;5.50;99.90;;;;;;5030894;28;20143;-55
2022/02/10 20:22:35;;;;;;;4.60;2.67;;;5.50;99.90;;;;;;5031081;28;20013;-56
2022/02/10 20:25:05;;;;;;;4.68;2.60;;;5.50;99.90;;;;;;5034757;28;20061;-55
2022/02/10 20:27:30;;;;;;;6.47;2.45;;;5.50;99.90;;;;;;5035925;28;20109;-55
2022/02/10 20:29:56;;;;;;;4.65;2.22;;;5.50;99.90;;;;;;5035393;28;20112;-55
2022/02/10 20:32:21;;;;;;;3.88;2.45;;;5.40;99.90;;;;;;5035543;28;20048;-55
2022/02/10 20:34:47;;;;;;;4.68;2.13;;;5.40;99.90;;;;;;5034454;28;20032;-55
2022/02/10 20:37:14;;;;;;;4.70;2.10;;;5.40;99.90;;;;;;5035653;28;20013;-55
2022/02/10 20:39:40;;;;;;;3.67;2.20;;;5.30;99.90;;;;;;5035787;28;20542;-55
2022/02/10 20:42:11;;;;;;;5.28;2.72;;;5.30;99.90;;;;;;5035574;28;20029;-55
2022/02/10 20:44:40;;;;;;;6.35;2.40;;;5.20;99.90;;;;;;5035295;28;20025;-55
2022/02/10 20:47:06;;;;;;;3.25;2.22;;;5.10;99.90;;;;;;5035073;28;20029;-55
2022/02/10 20:49:32;;;;;;;7.10;2.58;;;5.10;99.90;;;;;;5034018;28;20108;-55
2022/02/10 20:51:58;;;;;;;5.85;2.25;;;5.10;99.90;;;;;;5033641;28;20038;-55
2022/02/10 20:54:26;;;;;;;3.40;1.90;;;5.20;99.90;;;;;;5034770;28;20025;-55
2022/02/10 20:56:52;;;;;;;5.95;1.85;;;5.20;99.90;;;;;;5033854;28;20026;-55
2022/02/10 20:59:27;;;;;;;2.10;1.52;;;5.20;99.90;;;;;;5034249;28;20101;-55
2022/02/10 21:02:11;;;;;;;5.10;1.90;;;5.20;99.90;;;;;;5034684;28;20041;-55
2022/02/10 21:04:43;;;;;;;5.05;1.73;;;5.20;99.90;;;;;;5034760;28;20079;-55
2022/02/10 21:07:18;;;;;;;5.78;2.45;;;5.10;99.90;;;;;;5034808;28;20035;-55
2022/02/10 21:12:11;;;;;;;3.47;2.70;;;5.10;99.90;;;;;;5034298;28;20548;-55
2022/02/10 21:14:38;;;;;;;3.83;2.22;;;5.10;99.90;;;;;;5034571;28;20084;-55
2022/02/10 21:17:08;;;;;;;4.65;2.80;;;5.00;99.90;;;;;;5034260;28;20105;-55
2022/02/10 21:19:35;;;;;;;6.22;2.67;;;5.00;99.90;;;;;;5034102;28;20049;-55
2022/02/10 21:22:06;;;;;;;5.30;2.50;;;5.00;99.90;;;;;;5034764;28;20025;-55
2022/02/10 21:24:33;;;;;;;3.67;2.65;;;5.10;99.90;;;;;;5033629;28;20034;-55
2022/02/10 21:29:36;;;;;;;3.08;2.20;;;5.20;99.90;;;;;;5033812;28;20133;-55
2022/02/10 21:32:02;;;;;;;4.88;2.90;;;5.10;99.90;;;;;;5034771;28;20565;-55
2022/02/10 21:34:32;;;;;;;3.85;2.58;;;5.10;99.90;;;;;;5032987;28;20101;-55
2022/02/10 21:39:46;;;;;;;5.28;3.00;;;4.90;99.90;;;;;;5034333;28;20037;-54
2022/02/10 22:19:07;;;;;;;9.13;5.75;;;4.20;99.90;;;;;;5033215;28;20116;-54
2022/02/10 22:21:37;;;;;;;10.38;6.15;;;4.20;99.90;;;;;;5033450;28;20029;-54
2022/02/10 22:24:08;;;;;;;8.73;5.40;;;4.20;99.90;;;;;;5032962;28;20041;-54
2022/02/10 22:26:34;;;;;;;9.60;5.45;;;4.20;99.90;;;;;;5033527;28;20029;-55
2022/02/10 22:29:08;;;;;;;9.02;5.93;;;4.10;99.90;;;;;;5032766;28;20056;-55
2022/02/10 22:34:14;;;;;;;8.80;5.60;;;4.20;99.90;;;;;;5033232;28;20053;-55
2022/02/10 22:36:42;;;;;;;11.15;6.00;;;4.20;99.90;;;;;;5033236;28;20014;-54
2022/02/10 22:39:09;;;;;;;8.05;6.00;;;4.20;99.90;;;;;;5032744;28;20137;-54
2022/02/10 22:41:35;;;;;;;10.00;5.53;;;4.20;99.90;;;;;;5032626;28;20047;-55
2022/02/10 22:44:03;;;;;;;8.98;6.32;;;4.20;99.90;;;;;;5032573;28;20511;-55
2022/02/10 22:46:30;;;;;;;13.15;5.93;;;4.10;99.90;;;;;;5032682;28;20032;-55
2022/02/10 22:48:56;;;;;;;13.00;6.35;;;4.10;99.90;;;;;;5033026;28;20103;-55
2022/02/10 22:51:24;;;;;;;10.88;5.75;;;4.20;99.90;;;;;;5033061;28;20025;-55
2022/02/10 22:53:51;;;;;;;9.52;6.35;;;4.20;99.90;;;;;;5033292;28;20017;-54
2022/02/10 22:56:19;;;;;;;10.07;6.25;;;4.20;99.90;;;;;;5032569;28;20025;-54
2022/02/10 22:58:45;;;;;;;14.25;6.00;;;4.20;99.90;;;;;;5033187;28;20025;-54
2022/02/10 23:01:13;;;;;;;10.13;6.10;;;4.20;99.90;;;;;;5032490;28;20156;-54
2022/02/10 23:03:41;;;;;;;12.13;5.88;;;4.20;99.90;;;;;;5032971;28;20033;-54
2022/02/10 23:06:09;;;;;;;12.38;6.28;;;4.10;99.90;;;;;;5032476;28;20499;-54
2022/02/10 23:08:35;;;;;;;11.95;5.95;;;4.10;99.90;;;;;;5032552;28;20044;-54
2022/02/10 23:11:04;;;;;;;14.13;6.57;;;4.10;99.90;;;;;;5032124;28;20041;-54
2022/02/10 23:13:32;;;;;;;12.43;6.30;;;4.20;99.90;;;;;;5033001;28;20029;-54
2022/02/10 23:16:01;;;;;;;11.32;5.50;;;4.20;99.90;;;;;;5031972;28;20049;-55
2022/02/10 23:18:28;;;;;;;11.55;5.95;;;4.20;99.90;;;;;;5032009;28;20029;-54
2022/02/10 23:20:58;;;;;;;12.90;7.15;;;4.20;99.90;;;;;;5030841;28;20048;-54
2022/02/10 23:23:26;;;;;;;11.73;6.45;;;4.20;99.90;;;;;;5032021;28;20390;-54
2022/02/10 23:25:54;;;;;;;18.80;7.25;;;4.20;99.90;;;;;;5032481;28;20025;-54
2022/02/10 23:28:28;;;;;;;22.40;7.25;;;4.20;99.90;;;;;;5031839;28;20128;-54
2022/02/10 23:30:54;;;;;;;15.55;6.68;;;4.20;99.90;;;;;;5031849;28;20030;-54
2022/02/10 23:38:30;;;;;;;12.13;5.75;;;4.10;99.90;;;;;;5031902;28;20025;-55
2022/02/10 23:43:39;;;;;;;9.27;6.10;;;4.00;99.90;;;;;;5032066;28;20308;-55
2022/02/10 23:46:06;;;;;;;17.02;5.97;;;4.00;99.90;;;;;;5032038;28;20017;-54
2022/02/10 23:48:32;;;;;;;12.43;5.60;;;4.00;99.90;;;;;;5031551;28;20033;-54
2022/02/10 23:50:58;;;;;;;15.52;5.63;;;4.00;99.90;;;;;;5031421;28;20025;-54
2022/02/10 23:53:24;;;;;;;11.50;5.20;;;4.00;99.90;;;;;;5031656;28;20033;-54
2022/02/10 23:55:50;;;;;;;13.32;5.20;;;4.00;99.90;;;;;;5031605;28;20029;-54
